createdAt,value
2023-11-27T00:03:10.652Z,97088.84
2023-11-27T00:07:00.812Z,97087.79
2023-11-27T00:10:50.637Z,97082.02
2023-11-27T00:14:00.479Z,97077.00
2023-11-27T00:17:50.598Z,97077.46
2023-11-27T00:21:39.117Z,97078.67
2023-11-27T00:25:26.306Z,97079.67
2023-11-27T00:29:13.410Z,97079.57
2023-11-27T00:33:00.844Z,97078.08
2023-11-27T00:36:48.304Z,97077.02
2023-11-27T00:40:35.471Z,97077.45
2023-11-27T00:44:22.396Z,97074.23
2023-11-27T00:48:00.280Z,97068.46
2023-11-27T00:50:37.022Z,97066.98
2023-11-27T00:53:04.043Z,97064.41
2023-11-27T00:55:31.005Z,97065.97
2023-11-27T00:57:58.072Z,97065.89
2023-11-27T01:00:25.780Z,97062.91
2023-11-27T01:02:54.584Z,97056.88
2023-11-27T01:05:21.747Z,97054.98
2023-11-27T01:07:48.678Z,97048.38
2023-11-27T01:10:15.435Z,97045.38
2023-11-27T01:12:46.457Z,97037.66
2023-11-27T01:15:14.882Z,97036.23
2023-11-27T01:17:42.472Z,97031.63
2023-11-27T01:20:10.927Z,97028.45
2023-11-27T01:22:38.029Z,97029.05
2023-11-27T01:25:06.736Z,97032.36
2023-11-27T01:27:33.871Z,97031.95
2023-11-27T01:30:02.162Z,97029.10
2023-11-27T01:32:29.057Z,97028.17
2023-11-27T01:34:55.486Z,97024.41
2023-11-27T01:37:22.516Z,97020.34
2023-11-27T01:39:49.396Z,97021.05
2023-11-27T01:42:17.440Z,97015.30
2023-11-27T01:44:44.901Z,97009.77
2023-11-27T01:47:15.050Z,97008.24
2023-11-27T01:49:43.503Z,97007.52
2023-11-27T01:52:11.565Z,97008.98
2023-11-27T01:54:41.519Z,97006.45
2023-11-27T01:57:17.133Z,97006.86
2023-11-27T01:59:47.621Z,97002.44
2023-11-27T02:05:22.998Z,96995.23
2023-11-27T02:07:49.851Z,96999.98
2023-11-27T02:10:17.145Z,96990.86
2023-11-27T02:12:43.866Z,96987.83
2023-11-27T02:15:11.050Z,96985.99
2023-11-27T02:17:37.580Z,96979.23
2023-11-27T02:20:05.783Z,96979.88
2023-11-27T02:22:32.465Z,96978.64
2023-11-27T02:24:59.023Z,96975.04
2023-11-27T02:27:25.647Z,96967.86
2023-11-27T02:29:52.058Z,96965.67
2023-11-27T02:32:19.087Z,96956.14
2023-11-27T02:34:49.597Z,96961.39
2023-11-27T02:37:17.033Z,96958.06
2023-11-27T02:39:46.388Z,96955.83
2023-11-27T02:42:13.359Z,96957.02
2023-11-27T02:44:39.958Z,96955.97
2023-11-27T02:47:06.652Z,96961.77
2023-11-27T02:49:33.154Z,96963.34
2023-11-27T02:51:59.923Z,96955.05
2023-11-27T02:54:26.430Z,96953.79
2023-11-27T02:56:54.296Z,96954.65
2023-11-27T02:59:20.876Z,96951.85
2023-11-27T03:01:47.986Z,96950.05
2023-11-27T03:04:14.841Z,96942.11
2023-11-27T03:06:41.356Z,96941.06
2023-11-27T03:09:11.262Z,96940.09
2023-11-27T03:11:38.677Z,96937.02
2023-11-27T03:14:05.232Z,96937.80
2023-11-27T03:16:32.465Z,96939.52
2023-11-27T03:18:59.132Z,96934.98
2023-11-27T03:21:26.136Z,96934.73
2023-11-27T03:23:52.703Z,96930.04
2023-11-27T03:26:20.544Z,96927.45
2023-11-27T03:28:47.098Z,96921.27
2023-11-27T03:31:13.791Z,96924.48
2023-11-27T03:33:40.409Z,96925.62
2023-11-27T03:36:08.503Z,96924.02
2023-11-27T03:38:35.213Z,96927.73
2023-11-27T03:41:04.410Z,96930.60
2023-11-27T03:43:31.272Z,96932.23
2023-11-27T03:45:58.044Z,96930.07
2023-11-27T03:48:24.673Z,96931.10
2023-11-27T03:50:51.485Z,96929.96
2023-11-27T03:53:17.965Z,96927.77
2023-11-27T03:55:44.401Z,96925.30
2023-11-27T03:58:11.823Z,96926.57
2023-11-27T04:00:38.389Z,96930.08
2023-11-27T04:03:05.089Z,96927.45
2023-11-27T04:05:31.499Z,96928.02
2023-11-27T04:07:58.038Z,96931.90
2023-11-27T04:10:26.091Z,96932.02
2023-11-27T04:12:52.915Z,96935.34
2023-11-27T04:15:20.893Z,96937.17
2023-11-27T04:17:47.689Z,96932.94
2023-11-27T04:20:15.614Z,96938.30
2023-11-27T04:22:42.137Z,96932.77
2023-11-27T04:25:09.022Z,96938.00
2023-11-27T04:27:35.597Z,96937.20
2023-11-27T04:30:03.788Z,96935.60
2023-11-27T04:32:30.291Z,96935.34
2023-11-27T04:34:56.765Z,96934.85
2023-11-27T04:37:23.353Z,96935.98
2023-11-27T04:39:52.381Z,96928.39
2023-11-27T04:42:19.881Z,96925.90
2023-11-27T04:44:46.314Z,96927.50
2023-11-27T04:47:13.003Z,96926.15
2023-11-27T04:49:39.604Z,96923.37
2023-11-27T04:52:06.560Z,96925.48
2023-11-27T04:54:33.034Z,96929.14
2023-11-27T04:56:59.541Z,96929.33
2023-11-27T04:59:27.012Z,96932.36
2023-11-27T05:01:54.075Z,96929.09
2023-11-27T05:04:20.603Z,96930.91
2023-11-27T05:06:47.416Z,96933.77
2023-11-27T05:09:14.517Z,96935.12
2023-11-27T05:11:41.237Z,96936.31
2023-11-27T05:14:07.768Z,96932.52
2023-11-27T05:16:34.513Z,96932.35
2023-11-27T05:19:01.038Z,96933.23
2023-11-27T05:21:27.425Z,96932.51
2023-11-27T05:23:54.178Z,96930.25
2023-11-27T05:26:20.417Z,96929.66
2023-11-27T05:28:46.723Z,96930.73
2023-11-27T05:31:15.711Z,96925.92
2023-11-27T05:33:43.071Z,96926.40
2023-11-27T05:36:10.382Z,96923.45
2023-11-27T05:38:37.127Z,96920.33
2023-11-27T05:41:05.510Z,96913.40
2023-11-27T05:43:33.269Z,96912.47
2023-11-27T05:46:02.086Z,96915.12
2023-11-27T05:48:29.747Z,96915.02
2023-11-27T05:50:57.580Z,96917.91
2023-11-27T05:53:23.954Z,96915.90
2023-11-27T05:55:51.189Z,96916.90
2023-11-27T05:58:20.151Z,96917.27
2023-11-27T06:00:46.687Z,96913.92
2023-11-27T06:03:14.874Z,96917.48
2023-11-27T06:05:42.821Z,96916.23
2023-11-27T06:08:09.823Z,96915.78
2023-11-27T06:10:36.370Z,96917.17
2023-11-27T06:13:03.135Z,96915.54
2023-11-27T06:15:29.778Z,96917.26
2023-11-27T06:17:57.919Z,96915.84
2023-11-27T06:20:24.433Z,96917.82
2023-11-27T06:22:52.600Z,96916.71
2023-11-27T06:25:19.152Z,96921.29
2023-11-27T06:27:45.679Z,96927.11
2023-11-27T06:30:13.744Z,96925.05
2023-11-27T06:32:40.454Z,96923.65
2023-11-27T06:35:08.881Z,96921.83
2023-11-27T06:37:35.308Z,96916.72
2023-11-27T06:40:02.095Z,96919.63
2023-11-27T06:42:28.765Z,96921.04
2023-11-27T06:44:55.272Z,96924.91
2023-11-27T06:47:21.719Z,96924.42
2023-11-27T06:49:48.267Z,96924.38
2023-11-27T06:52:14.904Z,96926.15
2023-11-27T06:54:41.529Z,96924.31
2023-11-27T06:57:09.392Z,96925.90
2023-11-27T06:59:37.695Z,96933.74
2023-11-27T07:02:04.691Z,96939.80
2023-11-27T07:04:31.363Z,96933.98
2023-11-27T07:06:59.091Z,96932.95
2023-11-27T07:09:28.348Z,96936.42
2023-11-27T07:11:54.712Z,96940.19
2023-11-27T07:14:21.360Z,96941.39
2023-11-27T07:16:48.477Z,96939.78
2023-11-27T07:19:15.035Z,96937.42
2023-11-27T07:21:42.389Z,96938.79
2023-11-27T07:24:09.005Z,96940.77
2023-11-27T07:26:35.640Z,96946.04
2023-11-27T07:29:02.266Z,96950.55
2023-11-27T07:31:30.919Z,96949.61
2023-11-27T07:33:58.664Z,96951.30
2023-11-27T07:36:28.008Z,96951.24
2023-11-27T07:38:54.986Z,96950.50
2023-11-27T07:41:24.677Z,96950.41
2023-11-27T07:43:51.381Z,96948.04
2023-11-27T07:46:18.369Z,96946.59
2023-11-27T07:48:44.815Z,96948.09
2023-11-27T07:51:11.472Z,96946.33
2023-11-27T07:53:38.081Z,96948.73
2023-11-27T07:56:05.024Z,96946.08
2023-11-27T07:58:31.989Z,96940.67
2023-11-27T08:00:59.237Z,96935.68
2023-11-27T08:03:28.062Z,96935.40
2023-11-27T08:05:54.552Z,96934.43
2023-11-27T08:08:21.531Z,96936.58
2023-11-27T08:10:47.920Z,96938.11
2023-11-27T08:13:14.585Z,96943.94
2023-11-27T08:15:44.189Z,96943.79
2023-11-27T08:18:12.648Z,96946.48
2023-11-27T08:20:39.847Z,96947.94
2023-11-27T08:23:06.324Z,96946.17
2023-11-27T08:25:32.957Z,96950.22
2023-11-27T08:27:59.521Z,96949.34
2023-11-27T08:30:28.446Z,96949.83
2023-11-27T08:32:54.911Z,96948.73
2023-11-27T08:35:21.331Z,96946.70
2023-11-27T08:37:47.862Z,96944.27
2023-11-27T08:40:17.793Z,96945.73
2023-11-27T08:42:44.627Z,96943.48
2023-11-27T08:45:11.922Z,96938.41
2023-11-27T08:47:39.770Z,96938.61
2023-11-27T08:50:14.724Z,96937.88
2023-11-27T08:52:44.022Z,96936.81
2023-11-27T08:55:11.410Z,96934.94
2023-11-27T08:57:38.555Z,96929.23
2023-11-27T09:00:13.038Z,96927.71
2023-11-27T09:02:40.013Z,96923.33
2023-11-27T09:05:07.505Z,96921.51
2023-11-27T09:07:34.639Z,96920.62
2023-11-27T09:10:03.691Z,96923.86
2023-11-27T09:12:32.209Z,96925.14
2023-11-27T09:14:59.405Z,96924.52
2023-11-27T09:17:25.907Z,96922.00
2023-11-27T09:19:52.779Z,96922.06
2023-11-27T09:22:22.268Z,96923.65
2023-11-27T09:24:49.332Z,96926.00
2023-11-27T09:27:17.048Z,96928.21
2023-11-27T09:29:44.283Z,96935.41
2023-11-27T09:32:11.254Z,96937.27
2023-11-27T09:34:37.802Z,96934.71
2023-11-27T09:37:05.548Z,96930.71
2023-11-27T09:39:32.595Z,96929.69
2023-11-27T09:41:59.900Z,96928.20
2023-11-27T09:44:26.725Z,96921.25
2023-11-27T09:46:57.663Z,96922.03
2023-11-27T09:49:26.489Z,96920.12
2023-11-27T09:51:59.980Z,96919.02
2023-11-27T09:54:33.637Z,96922.14
2023-11-27T09:56:59.929Z,96919.33
2023-11-27T09:59:30.793Z,96913.40
2023-11-27T10:01:59.804Z,96910.80
2023-11-27T10:04:26.577Z,96906.38
2023-11-27T10:06:54.024Z,96901.44
2023-11-27T10:09:22.955Z,96892.06
2023-11-27T10:11:52.113Z,96885.34
2023-11-27T10:14:36.450Z,96883.23
2023-11-27T10:17:06.402Z,96887.00
2023-11-27T10:19:33.486Z,96883.30
2023-11-27T10:22:00.227Z,96882.07
2023-11-27T10:24:26.994Z,96878.60
2023-11-27T10:26:53.581Z,96873.27
2023-11-27T10:29:27.317Z,96866.08
2023-11-27T10:32:03.817Z,96861.65
2023-11-27T10:34:34.398Z,96857.83
2023-11-27T10:37:02.329Z,96857.45
2023-11-27T10:39:33.360Z,96859.98
2023-11-27T10:42:22.760Z,96859.20
2023-11-27T10:44:51.501Z,96856.81
2023-11-27T10:47:20.412Z,96859.69
2023-11-27T10:49:50.604Z,96852.52
2023-11-27T10:52:19.464Z,96853.85
2023-11-27T10:54:49.637Z,96850.41
2023-11-27T10:57:20.561Z,96849.83
2023-11-27T10:59:47.863Z,96847.83
2023-11-27T11:02:14.865Z,96849.11
2023-11-27T11:04:57.429Z,96845.55
2023-11-27T11:07:37.026Z,96842.59
2023-11-27T11:10:07.730Z,96843.15
2023-11-27T11:12:36.655Z,96841.50
2023-11-27T11:15:04.194Z,96841.13
2023-11-27T11:17:45.833Z,96836.40
2023-11-27T11:20:44.174Z,96831.17
2023-11-27T11:23:33.666Z,96828.20
2023-11-27T11:26:34.013Z,96828.49
2023-11-27T11:29:18.934Z,96824.01
2023-11-27T11:31:50.032Z,96821.16
2023-11-27T11:34:23.988Z,96824.86
2023-11-27T11:37:00.999Z,96827.33
2023-11-27T11:39:29.259Z,96827.29
2023-11-27T11:42:05.328Z,96826.79
2023-11-27T11:44:37.054Z,96824.45
2023-11-27T11:47:22.613Z,96816.25
2023-11-27T11:49:49.076Z,96811.94
2023-11-27T11:52:19.606Z,96808.34
2023-11-27T11:54:48.675Z,96804.37
2023-11-27T11:57:21.954Z,96800.67
2023-11-27T11:59:51.549Z,96798.23
2023-11-27T12:02:23.943Z,96795.24
2023-11-27T12:04:54.954Z,96791.08
2023-11-27T12:07:25.398Z,96785.83
2023-11-27T12:09:52.556Z,96780.77
2023-11-27T12:12:23.091Z,96775.91
2023-11-27T12:14:50.520Z,96771.94
2023-11-27T12:17:21.398Z,96768.52
2023-11-27T12:19:49.157Z,96767.08
2023-11-27T12:22:15.905Z,96763.60
2023-11-27T12:24:46.376Z,96764.31
2023-11-27T12:27:12.976Z,96761.09
2023-11-27T12:29:40.436Z,96762.41
2023-11-27T12:32:08.710Z,96760.16
2023-11-27T12:34:36.817Z,96761.57
2023-11-27T12:37:04.848Z,96760.63
2023-11-27T12:39:31.914Z,96761.88
2023-11-27T12:42:02.304Z,96763.82
2023-11-27T12:44:33.455Z,96756.75
2023-11-27T12:47:06.752Z,96756.08
2023-11-27T12:49:36.738Z,96752.57
2023-11-27T12:52:15.269Z,96752.15
2023-11-27T12:54:41.904Z,96748.52
2023-11-27T12:57:10.165Z,96741.36
2023-11-27T12:59:40.882Z,96739.90
2023-11-27T13:02:08.248Z,96743.20
2023-11-27T13:04:37.855Z,96741.05
2023-11-27T13:07:06.867Z,96741.10
2023-11-27T13:09:34.102Z,96740.95
2023-11-27T13:12:15.746Z,96739.96
2023-11-27T13:14:44.188Z,96740.12
2023-11-27T13:17:19.856Z,96741.22
2023-11-27T13:19:51.345Z,96735.58
2023-11-27T13:22:18.558Z,96734.51
2023-11-27T13:24:46.302Z,96734.81
2023-11-27T13:27:21.545Z,96736.05
2023-11-27T13:29:50.994Z,96731.91
2023-11-27T13:32:18.816Z,96729.67
2023-11-27T13:34:56.245Z,96733.02
2023-11-27T13:37:35.682Z,96731.59
2023-11-27T13:40:04.348Z,96734.92
2023-11-27T13:42:31.360Z,96729.43
2023-11-27T13:44:59.583Z,96731.77
2023-11-27T13:47:26.562Z,96731.02
2023-11-27T13:49:56.335Z,96727.27
2023-11-27T13:52:31.141Z,96725.88
2023-11-27T13:54:59.349Z,96725.82
2023-11-27T13:57:31.898Z,96721.31
2023-11-27T13:59:58.690Z,96717.45
2023-11-27T14:02:28.581Z,96718.71
2023-11-27T14:04:56.106Z,96717.22
2023-11-27T14:07:25.471Z,96714.05
2023-11-27T14:09:55.282Z,96710.91
2023-11-27T14:12:35.733Z,96707.52
2023-11-27T14:15:22.374Z,96711.82
2023-11-27T14:18:09.202Z,96706.24
2023-11-27T14:20:53.583Z,96707.63
2023-11-27T14:23:26.539Z,96704.07
2023-11-27T14:26:23.150Z,96706.60
2023-11-27T14:28:49.937Z,96704.48
2023-11-27T14:31:20.662Z,96701.63
2023-11-27T14:33:51.200Z,96700.48
2023-11-27T14:36:17.770Z,96693.29
2023-11-27T14:38:47.001Z,96693.82
2023-11-27T14:41:14.064Z,96686.08
2023-11-27T14:43:40.824Z,96684.06
2023-11-27T14:46:15.603Z,96679.98
2023-11-27T14:48:42.783Z,96673.00
2023-11-27T14:51:12.483Z,96669.55
2023-11-27T14:53:44.432Z,96671.95
2023-11-27T14:56:12.357Z,96670.52
2023-11-27T14:58:38.998Z,96660.70
2023-11-27T15:01:08.925Z,96659.96
2023-11-27T15:03:40.050Z,96660.90
2023-11-27T15:06:08.585Z,96659.53
2023-11-27T15:08:35.104Z,96648.71
2023-11-27T15:11:04.065Z,96649.11
2023-11-27T15:13:31.286Z,96646.17
2023-11-27T15:15:59.422Z,96642.80
2023-11-27T15:18:27.409Z,96636.64
2023-11-27T15:20:54.397Z,96636.59
2023-11-27T15:23:22.477Z,96629.49
2023-11-27T15:25:51.982Z,96628.67
2023-11-27T15:28:24.163Z,96627.34
2023-11-27T15:30:55.470Z,96622.11
2023-11-27T15:33:26.294Z,96617.21
2023-11-27T15:35:53.545Z,96612.79
2023-11-27T15:38:20.674Z,96612.06
2023-11-27T15:40:48.554Z,96609.63
2023-11-27T15:43:15.482Z,96605.67
2023-11-27T15:45:42.139Z,96604.95
2023-11-27T15:48:13.252Z,96607.23
2023-11-27T15:50:40.165Z,96603.94
2023-11-27T15:56:54.630Z,96587.39
2023-11-27T15:59:21.634Z,96586.61
2023-11-27T16:01:48.743Z,96590.48
2023-11-27T16:04:16.011Z,96590.13
2023-11-27T16:06:42.814Z,96591.71
2023-11-27T16:09:10.616Z,96587.48
2023-11-27T16:11:37.108Z,96586.89
2023-11-27T16:14:08.869Z,96585.14
2023-11-27T16:16:43.262Z,96583.07
2023-11-27T16:19:09.750Z,96579.66
2023-11-27T16:21:37.818Z,96576.65
2023-11-27T16:24:07.224Z,96578.33
2023-11-27T16:26:33.936Z,96575.83
2023-11-27T16:29:01.244Z,96577.32
2023-11-27T16:31:28.106Z,96570.93
2023-11-27T16:33:55.144Z,96571.63
2023-11-27T16:36:21.680Z,96570.48
2023-11-27T16:38:48.318Z,96572.23
2023-11-27T16:41:15.880Z,96570.86
2023-11-27T16:43:43.393Z,96567.52
2023-11-27T16:46:10.686Z,96567.46
2023-11-27T16:48:37.493Z,96564.13
2023-11-27T16:51:04.517Z,96557.54
2023-11-27T16:53:32.259Z,96556.13
2023-11-27T16:56:00.530Z,96554.96
2023-11-27T16:58:28.198Z,96550.78
2023-11-27T17:00:54.804Z,96554.62
2023-11-27T17:03:22.065Z,96549.58
2023-11-27T17:05:50.297Z,96548.77
2023-11-27T17:08:20.011Z,96548.71
2023-11-27T17:10:51.234Z,96552.07
2023-11-27T17:13:17.726Z,96551.02
2023-11-27T17:15:48.027Z,96549.75
2023-11-27T17:18:16.411Z,96551.96
2023-11-27T17:20:47.179Z,96547.45
2023-11-27T17:23:15.566Z,96550.33
2023-11-27T17:25:42.946Z,96544.73
2023-11-27T17:28:14.355Z,96540.27
2023-11-27T17:30:46.014Z,96538.02
2023-11-27T17:33:13.329Z,96533.77
2023-11-27T17:35:40.227Z,96534.07
2023-11-27T17:38:07.165Z,96535.22
2023-11-27T17:40:33.824Z,96527.27
2023-11-27T17:43:00.409Z,96521.46
2023-11-27T17:45:26.824Z,96520.61
2023-11-27T17:47:53.652Z,96517.91
2023-11-27T17:50:23.444Z,96515.02
2023-11-27T17:52:54.504Z,96510.48
2023-11-27T17:55:35.784Z,96506.88
2023-11-27T17:58:09.325Z,96497.72
2023-11-27T18:00:35.709Z,96492.08
2023-11-27T18:03:02.209Z,96493.53
2023-11-27T18:05:32.376Z,96498.01
2023-11-27T18:08:01.843Z,96497.70
2023-11-27T18:10:28.711Z,96494.73
2023-11-27T18:12:55.184Z,96490.08
2023-11-27T18:15:24.721Z,96487.06
2023-11-27T18:17:52.684Z,96479.99
2023-11-27T18:20:22.698Z,96478.57
2023-11-27T18:22:49.390Z,96475.86
2023-11-27T18:25:21.622Z,96475.62
2023-11-27T18:27:57.899Z,96474.02
2023-11-27T18:30:24.702Z,96462.98
2023-11-27T18:32:54.496Z,96458.41
2023-11-27T18:35:20.819Z,96459.27
2023-11-27T18:37:48.130Z,96460.65
2023-11-27T18:40:15.727Z,96457.95
2023-11-27T18:42:43.309Z,96458.92
2023-11-27T18:45:11.698Z,96456.04
2023-11-27T18:47:42.741Z,96453.50
2023-11-27T18:50:12.332Z,96449.42
2023-11-27T18:52:38.840Z,96449.60
2023-11-27T18:55:06.513Z,96445.36
2023-11-27T18:57:36.186Z,96442.19
2023-11-27T19:00:06.440Z,96439.02
2023-11-27T19:02:33.501Z,96428.32
2023-11-27T19:05:02.069Z,96425.40
2023-11-27T19:07:28.789Z,96422.70
2023-11-27T19:09:55.810Z,96418.38
2023-11-27T19:12:22.172Z,96412.69
2023-11-27T19:14:55.132Z,96410.02
2023-11-27T19:17:22.241Z,96404.86
2023-11-27T19:19:49.494Z,96395.66
2023-11-27T19:22:16.761Z,96394.33
2023-11-27T19:24:46.308Z,96390.45
2023-11-27T19:27:13.062Z,96386.88
2023-11-27T19:29:39.656Z,96384.17
2023-11-27T19:32:09.974Z,96383.69
2023-11-27T19:34:43.323Z,96383.52
2023-11-27T19:37:10.563Z,96382.34
2023-11-27T19:39:37.281Z,96372.86
2023-11-27T19:42:04.471Z,96364.35
2023-11-27T19:44:30.950Z,96363.38
2023-11-27T19:46:59.940Z,96365.48
2023-11-27T19:49:27.287Z,96364.48
2023-11-27T19:51:54.659Z,96361.08
2023-11-27T19:54:24.748Z,96356.31
2023-11-27T19:56:51.474Z,96347.39
2023-11-27T19:59:19.440Z,96344.96
2023-11-27T20:01:46.324Z,96340.79
2023-11-27T20:04:14.310Z,96329.25
2023-11-27T20:06:43.601Z,96318.65
2023-11-27T20:09:13.008Z,96319.77
2023-11-27T20:11:40.007Z,96320.21
2023-11-27T20:14:07.805Z,96309.70
2023-11-27T20:16:37.989Z,96307.27
2023-11-27T20:19:06.727Z,96301.28
2023-11-27T20:21:34.252Z,96298.46
2023-11-27T20:24:02.259Z,96293.83
2023-11-27T20:26:29.244Z,96294.21
2023-11-27T20:29:00.241Z,96290.80
2023-11-27T20:31:33.992Z,96285.86
2023-11-27T20:34:04.244Z,96290.96
2023-11-27T20:36:33.287Z,96291.08
2023-11-27T20:39:00.851Z,96285.93
2023-11-27T20:41:27.578Z,96279.45
2023-11-27T20:43:58.464Z,96271.55
2023-11-27T20:46:28.031Z,96266.86
2023-11-27T20:48:55.181Z,96262.55
2023-11-27T20:51:21.790Z,96261.83
2023-11-27T20:53:48.325Z,96257.35
2023-11-27T20:56:15.536Z,96254.02
2023-11-27T20:58:43.009Z,96253.48
2023-11-27T21:01:09.722Z,96253.19
2023-11-27T21:03:39.549Z,96247.86
2023-11-27T21:06:07.379Z,96248.06
2023-11-27T21:08:34.943Z,96246.23
2023-11-27T21:11:02.648Z,96245.05
2023-11-27T21:13:29.100Z,96242.92
2023-11-27T21:15:57.640Z,96241.48
2023-11-27T21:18:24.323Z,96233.23
2023-11-27T21:20:52.115Z,96235.34
2023-11-27T21:23:20.584Z,96238.92
2023-11-27T21:25:47.769Z,96241.11
2023-11-27T21:28:14.598Z,96241.91
2023-11-27T21:30:41.290Z,96239.42
2023-11-27T21:33:08.195Z,96234.02
2023-11-27T21:35:34.941Z,96230.48
2023-11-27T21:38:01.303Z,96226.33
2023-11-27T21:40:37.163Z,96223.42
2023-11-27T21:43:03.798Z,96217.25
2023-11-27T21:45:31.255Z,96212.98
2023-11-27T21:47:58.268Z,96211.27
2023-11-27T21:50:27.430Z,96207.39
2023-11-27T21:52:54.097Z,96208.16
2023-11-27T21:55:20.780Z,96198.58
2023-11-27T21:57:47.524Z,96191.51
2023-11-27T22:00:14.416Z,96188.70
2023-11-27T22:02:42.113Z,96182.95
2023-11-27T22:05:10.305Z,96175.69
2023-11-27T22:07:37.775Z,96166.06
2023-11-27T22:10:05.288Z,96158.91
2023-11-27T22:12:32.512Z,96147.60
2023-11-27T22:14:59.803Z,96142.41
2023-11-27T22:17:28.394Z,96133.11
2023-11-27T22:19:54.938Z,96126.55
2023-11-27T22:22:21.636Z,96129.65
2023-11-27T22:24:48.121Z,96126.64
2023-11-27T22:27:14.988Z,96125.73
2023-11-27T22:29:43.128Z,96126.16
2023-11-27T22:32:09.617Z,96125.70
2023-11-27T22:34:36.243Z,96126.73
2023-11-27T22:37:02.814Z,96126.97
2023-11-27T22:39:29.330Z,96126.38
2023-11-27T22:41:55.810Z,96129.00
2023-11-27T22:44:22.094Z,96132.18
2023-11-27T22:46:48.576Z,96131.02
2023-11-27T22:49:15.057Z,96129.56
2023-11-27T22:51:41.628Z,96127.42
2023-11-27T22:54:08.061Z,96123.61
2023-11-27T22:56:34.549Z,96124.39
2023-11-27T22:59:11.267Z,96116.83
2023-11-27T23:01:43.394Z,96110.84
2023-11-27T23:04:10.437Z,96107.03
2023-11-27T23:06:38.563Z,96100.87
2023-11-27T23:09:08.359Z,96096.45
2023-11-27T23:11:34.928Z,96092.22
2023-11-27T23:14:01.811Z,96087.95
2023-11-27T23:16:28.399Z,96085.49
2023-11-27T23:18:54.908Z,96082.05
2023-11-27T23:21:23.074Z,96079.45
2023-11-27T23:23:49.658Z,96077.95
2023-11-27T23:26:16.978Z,96070.42
2023-11-27T23:28:44.388Z,96063.55
2023-11-27T23:31:11.294Z,96057.25
2023-11-27T23:33:37.973Z,96052.13
2023-11-27T23:36:06.925Z,96049.39
2023-11-27T23:38:34.330Z,96050.91
2023-11-27T23:41:02.094Z,96046.64
2023-11-27T23:43:28.992Z,96043.33
2023-11-27T23:45:55.477Z,96043.27
2023-11-27T23:48:23.234Z,96042.73
2023-11-27T23:50:50.461Z,96037.95
2023-11-27T23:53:17.010Z,96042.27
2023-11-27T23:55:43.493Z,96039.73
2023-11-27T23:58:10.915Z,96044.63
